Agulhas — ZSAF — position and weather

sailwx.info

Track history (hours):
 
Tides and Currents Weather Stations Pressure Air Temp Water Temp Dewpoint Dewpoint Depression Visibility Wind Speed Wind Dir Waves Ship Positions

Oceanographic research ship Agulhas (South Africa)

Detailed information on ship capabilities available from University of Delaware's Ocean Information Center.

Last reported at 2018-Feb-14 08:14 UTC. Time now 2018-May-20 17:46 UTC.
Position S 30°47' E 030°41'.
Warning: this ship's position is months out of date.

Type: Passenger vessel. MMSI: 601048000.

Date/timePositionNaut miles runAvg speedWind from/ knotsBaromVisibWave heightAir tempDewpointWater temp
2018-Feb-14 08:14S 30°47' E 030°41'512.9
2018-Feb-14 07:51S 30°45' E 030°47'413.2
2018-Feb-14 07:30S 30°43' E 030°51'714.2
2018-Feb-14 07:01S 30°41' E 030°59'714.8
2018-Feb-14 06:30S 30°38' E 031°07'714.6
2018-Feb-14 06:00S 30°35' E 031°15'714.3
2018-Feb-14 05:30S 30°33' E 031°23'814.0
2018-Feb-14 04:54S 30°30' E 031°32'613.8
2018-Feb-14 04:28S 30°28' E 031°38'613.7
2018-Feb-14 04:00S 30°25' E 031°45'813.6
2018-Feb-14 03:24S 30°22' E 031°54'513.3
2018-Feb-14 03:00S 30°20' E 031°60'713.1
2018-Feb-14 02:30S 30°18' E 032°07'  
Track history (hours):
 
Tides and Currents Weather Stations Pressure Air Temp Water Temp Dewpoint Dewpoint Depression Visibility Wind Speed Wind Dir Waves Ship Positions

Oceanographic research ship Agulhas (South Africa)

Detailed information on ship capabilities available from University of Delaware's Ocean Information Center.

Last reported at 2018-Feb-14 08:14 UTC. Time now 2018-May-20 17:46 UTC.
Position S 30°47' E 030°41'.
Warning: this ship's position is months out of date.

Type: Passenger vessel. MMSI: 601048000.

Date/timePositionNaut miles runAvg speedWind from/ knotsBaromVisibWave heightAir tempDewpointWater temp
2018-Feb-14 08:14S 30°47' E 030°41'512.9
2018-Feb-14 07:51S 30°45' E 030°47'413.2
2018-Feb-14 07:30S 30°43' E 030°51'714.2
2018-Feb-14 07:01S 30°41' E 030°59'714.8
2018-Feb-14 06:30S 30°38' E 031°07'714.6
2018-Feb-14 06:00S 30°35' E 031°15'714.3
2018-Feb-14 05:30S 30°33' E 031°23'814.0
2018-Feb-14 04:54S 30°30' E 031°32'613.8
2018-Feb-14 04:28S 30°28' E 031°38'613.7
2018-Feb-14 04:00S 30°25' E 031°45'813.6
2018-Feb-14 03:24S 30°22' E 031°54'513.3
2018-Feb-14 03:00S 30°20' E 031°60'713.1
2018-Feb-14 02:30S 30°18' E 032°07'  

Dump ship's entire track history